createdAt,value
2018-12-05T00:02:06.880Z,18.80
2018-12-05T00:04:31.953Z,17.43
2018-12-05T00:06:57.122Z,22.50
2018-12-05T00:09:22.282Z,17.07
2018-12-05T00:11:47.564Z,17.23
2018-12-05T00:14:12.726Z,12.63
2018-12-05T00:16:37.788Z,12.43
2018-12-05T00:19:02.849Z,19.00
2018-12-05T00:21:27.927Z,14.23
2018-12-05T00:23:53.006Z,14.13
2018-12-05T00:26:18.058Z,16.37
2018-12-05T00:28:43.184Z,16.13
2018-12-05T00:31:20.235Z,13.53
2018-12-05T00:34:05.187Z,15.87
2018-12-05T00:36:30.260Z,13.87
2018-12-05T00:38:55.319Z,9.73
2018-12-05T00:41:20.551Z,14.43
2018-12-05T00:43:45.655Z,15.33
2018-12-05T00:46:10.763Z,15.33
2018-12-05T00:48:35.798Z,17.03
2018-12-05T00:51:00.894Z,16.80
2018-12-05T00:53:25.963Z,20.30
2018-12-05T00:55:51.038Z,9.27
2018-12-05T00:58:16.135Z,10.30
2018-12-05T01:00:41.164Z,12.00
2018-12-05T01:03:06.217Z,12.60
2018-12-05T01:05:41.604Z,16.77
2018-12-05T01:08:06.655Z,14.23
2018-12-05T01:10:31.832Z,9.30
2018-12-05T01:12:56.876Z,15.17
2018-12-05T01:15:21.931Z,10.93
2018-12-05T01:18:06.874Z,12.77
2018-12-05T01:20:31.923Z,10.73
2018-12-05T01:22:56.991Z,14.33
2018-12-05T01:25:22.034Z,11.43
2018-12-05T01:27:47.210Z,12.90
2018-12-05T01:30:32.149Z,11.47
2018-12-05T01:32:57.225Z,13.73
2018-12-05T01:35:22.358Z,17.00
2018-12-05T01:37:47.565Z,16.33
2018-12-05T01:40:12.746Z,11.33
2018-12-05T01:42:37.809Z,14.87
2018-12-05T01:45:02.998Z,16.03
2018-12-05T01:47:28.219Z,15.27
2018-12-05T01:49:53.531Z,16.13
2018-12-05T01:52:18.657Z,10.33
2018-12-05T01:54:43.723Z,12.43
2018-12-05T01:57:08.770Z,9.37
2018-12-05T01:59:33.868Z,10.63
2018-12-05T02:01:58.974Z,14.33
2018-12-05T02:04:24.229Z,14.77
2018-12-05T02:06:49.410Z,9.80
2018-12-05T02:09:14.649Z,11.80
2018-12-05T02:11:39.808Z,13.13
2018-12-05T02:14:05.872Z,17.57
2018-12-05T02:16:30.899Z,11.23
2018-12-05T02:18:55.988Z,17.13
2018-12-05T02:21:31.811Z,14.80
2018-12-05T02:23:56.947Z,18.67
2018-12-05T02:26:21.987Z,10.57
2018-12-05T02:28:47.081Z,11.13
2018-12-05T02:31:12.227Z,10.33
2018-12-05T02:33:37.287Z,13.20
2018-12-05T02:36:02.414Z,10.53
2018-12-05T02:38:27.550Z,16.87
2018-12-05T02:40:52.700Z,15.93
2018-12-05T02:43:17.747Z,11.90
2018-12-05T02:45:42.853Z,13.37
2018-12-05T02:48:07.916Z,15.27
2018-12-05T02:50:33.403Z,15.13
2018-12-05T02:52:58.449Z,16.77
2018-12-05T02:55:23.498Z,14.67
2018-12-05T02:57:48.729Z,14.97
2018-12-05T03:00:13.974Z,13.73
2018-12-05T03:02:39.008Z,12.60
2018-12-05T03:05:23.977Z,14.00
2018-12-05T03:07:49.105Z,11.53
2018-12-05T03:10:14.359Z,11.80
2018-12-05T03:12:39.510Z,15.27
2018-12-05T03:15:04.637Z,8.10
2018-12-05T03:17:29.688Z,19.17
2018-12-05T03:19:54.759Z,10.23
2018-12-05T03:22:19.832Z,14.60
2018-12-05T03:24:55.018Z,13.63
2018-12-05T03:27:20.058Z,15.20
2018-12-05T03:29:45.136Z,15.00
2018-12-05T03:32:10.277Z,11.33
2018-12-05T03:34:35.435Z,16.07
2018-12-05T03:37:00.471Z,13.13
2018-12-05T03:39:25.530Z,12.37
2018-12-05T03:41:50.607Z,14.60
2018-12-05T03:44:15.684Z,12.97
2018-12-05T03:46:40.810Z,22.27
2018-12-05T03:49:05.993Z,17.53
2018-12-05T03:51:31.062Z,15.13
2018-12-05T03:53:56.143Z,11.70
2018-12-05T03:56:33.286Z,20.53
2018-12-05T03:58:58.316Z,11.30
2018-12-05T04:01:23.551Z,15.70
2018-12-05T04:03:48.606Z,19.43
2018-12-05T04:06:13.799Z,17.77
2018-12-05T04:08:38.837Z,16.80
2018-12-05T04:11:04.068Z,17.73
2018-12-05T04:13:29.138Z,12.13
2018-12-05T04:15:54.363Z,15.43
2018-12-05T04:18:19.441Z,14.87
2018-12-05T04:20:44.573Z,16.63
2018-12-05T04:23:09.747Z,14.23
2018-12-05T04:25:34.813Z,15.00
2018-12-05T04:27:59.945Z,16.63
2018-12-05T04:30:25.009Z,18.23
2018-12-05T04:32:50.070Z,12.70
2018-12-05T04:35:15.148Z,16.63
2018-12-05T04:37:40.198Z,16.07
2018-12-05T04:40:05.690Z,20.27
2018-12-05T04:42:30.827Z,20.90
2018-12-05T04:44:55.901Z,13.97
2018-12-05T04:47:21.024Z,13.97
2018-12-05T04:49:46.104Z,12.70
2018-12-05T04:52:11.152Z,17.23
2018-12-05T04:54:36.219Z,13.43
2018-12-05T04:57:01.300Z,19.17
2018-12-05T04:59:26.361Z,19.23
2018-12-05T05:02:02.010Z,14.60
2018-12-05T05:04:27.058Z,13.87
2018-12-05T05:06:52.143Z,17.50
2018-12-05T05:09:17.220Z,13.90
2018-12-05T05:14:19.503Z,15.23
2018-12-05T05:16:44.536Z,16.07
2018-12-05T05:19:09.703Z,18.63
2018-12-05T05:21:34.752Z,16.50
2018-12-05T05:23:59.853Z,17.83
2018-12-05T05:26:24.933Z,14.80
2018-12-05T05:28:50.015Z,15.03
2018-12-05T05:31:15.107Z,11.70
2018-12-05T05:33:40.272Z,17.80
2018-12-05T05:36:25.310Z,17.47
2018-12-05T05:38:50.358Z,14.83
2018-12-05T05:41:15.429Z,16.30
2018-12-05T05:43:40.696Z,20.57
2018-12-05T05:46:05.851Z,14.10
2018-12-05T05:48:31.098Z,16.73
2018-12-05T05:50:56.179Z,14.63
2018-12-05T05:53:21.315Z,19.00
2018-12-05T05:55:46.373Z,15.27
2018-12-05T05:58:11.463Z,15.40
2018-12-05T06:00:36.620Z,18.53
2018-12-05T06:03:01.804Z,13.90
2018-12-05T06:05:26.904Z,21.27
2018-12-05T06:07:51.959Z,15.10
2018-12-05T06:10:17.069Z,14.27
2018-12-05T06:12:42.114Z,15.00
2018-12-05T06:15:08.782Z,17.93
2018-12-05T06:17:34.033Z,17.27
2018-12-05T06:19:59.235Z,13.87
2018-12-05T06:22:24.276Z,17.27
2018-12-05T06:24:49.393Z,12.07
2018-12-05T06:27:14.518Z,13.20
2018-12-05T06:29:39.714Z,15.97
2018-12-05T06:32:04.870Z,17.03
2018-12-05T06:34:36.810Z,16.30
2018-12-05T06:37:01.910Z,14.60
2018-12-05T06:39:26.945Z,18.03
2018-12-05T06:41:52.078Z,17.20
2018-12-05T06:44:17.167Z,19.63
2018-12-05T06:46:42.241Z,14.80
2018-12-05T06:49:07.386Z,14.40
2018-12-05T06:51:32.509Z,12.87
2018-12-05T06:53:57.581Z,14.27
2018-12-05T06:56:22.743Z,19.33
2018-12-05T06:58:47.919Z,14.70
2018-12-05T07:01:13.116Z,15.13
2018-12-05T07:03:38.258Z,17.97
2018-12-05T07:06:03.569Z,12.77
2018-12-05T07:08:28.718Z,18.07
2018-12-05T07:10:53.892Z,19.47
2018-12-05T07:13:18.981Z,19.93
2018-12-05T07:15:44.075Z,14.87
2018-12-05T07:18:09.158Z,12.60
2018-12-05T07:20:34.293Z,18.33
2018-12-05T07:22:59.345Z,14.93
2018-12-05T07:25:24.557Z,20.17
2018-12-05T07:27:49.617Z,12.83
2018-12-05T07:30:14.722Z,17.07
2018-12-05T07:32:39.810Z,18.83
2018-12-05T07:35:05.251Z,15.80
2018-12-05T07:37:30.328Z,13.10
2018-12-05T07:39:55.500Z,18.23
2018-12-05T07:42:20.618Z,22.03
2018-12-05T07:44:45.774Z,23.60
2018-12-05T07:47:10.911Z,24.00
2018-12-05T07:49:35.965Z,19.53
2018-12-05T07:52:01.064Z,15.43
2018-12-05T07:54:26.118Z,14.13
2018-12-05T07:56:51.225Z,15.60
2018-12-05T07:59:16.290Z,16.80
2018-12-05T08:01:41.381Z,19.77
2018-12-05T08:04:06.635Z,13.60
2018-12-05T08:06:31.709Z,20.33
2018-12-05T08:08:56.795Z,18.60
2018-12-05T08:11:21.880Z,20.10
2018-12-05T08:13:47.004Z,15.30
2018-12-05T08:16:12.122Z,17.43
2018-12-05T08:18:37.306Z,14.43
2018-12-05T08:21:02.549Z,16.03
2018-12-05T08:23:27.715Z,16.40
2018-12-05T08:25:52.904Z,14.03
2018-12-05T08:31:09.338Z,18.20
2018-12-05T08:33:32.461Z,20.20
2018-12-05T08:35:55.593Z,21.20
2018-12-05T08:38:18.796Z,13.97
2018-12-05T08:40:41.927Z,13.07
2018-12-05T08:43:05.079Z,16.63
2018-12-05T08:45:28.259Z,16.93
2018-12-05T08:47:51.464Z,20.97
2018-12-05T08:50:14.701Z,15.93
2018-12-05T08:52:37.824Z,18.10
2018-12-05T08:55:00.969Z,15.90
2018-12-05T08:57:24.070Z,17.20
2018-12-05T08:59:47.201Z,16.97
2018-12-05T09:02:10.334Z,17.23
2018-12-05T09:04:33.463Z,16.17
2018-12-05T09:06:56.570Z,14.97
2018-12-05T09:09:19.711Z,17.70
2018-12-05T09:11:42.891Z,12.83
2018-12-05T09:14:06.086Z,17.70
2018-12-05T09:16:29.208Z,13.67
2018-12-05T09:18:52.337Z,14.83
2018-12-05T09:21:15.430Z,13.40
2018-12-05T09:23:38.521Z,13.43
2018-12-05T09:26:01.659Z,12.37
2018-12-05T09:28:24.754Z,22.77
2018-12-05T09:30:47.874Z,15.90
2018-12-05T09:33:10.997Z,16.03
2018-12-05T09:35:34.087Z,14.50
2018-12-05T09:37:57.207Z,15.97
2018-12-05T09:40:20.292Z,15.83
2018-12-05T09:42:43.454Z,11.60
2018-12-05T09:45:09.934Z,11.20
2018-12-05T09:47:33.078Z,19.03
2018-12-05T09:49:56.191Z,12.40
2018-12-05T09:52:19.316Z,12.17
2018-12-05T09:54:42.756Z,11.80
2018-12-05T09:57:05.914Z,13.67
2018-12-05T09:59:29.024Z,19.23
2018-12-05T10:01:52.216Z,11.03
2018-12-05T10:04:15.335Z,12.17
2018-12-05T10:06:38.687Z,10.90
2018-12-05T10:09:01.839Z,14.97
2018-12-05T10:11:24.937Z,11.77
2018-12-05T10:13:48.074Z,10.20
2018-12-05T10:16:11.187Z,9.20
2018-12-05T10:18:34.607Z,10.53
2018-12-05T10:20:57.804Z,9.17
2018-12-05T10:23:20.912Z,7.97
2018-12-05T10:25:44.031Z,11.20
2018-12-05T10:28:07.131Z,9.90
2018-12-05T10:30:30.298Z,7.30
2018-12-05T10:32:53.414Z,7.43
2018-12-05T10:35:16.500Z,14.00
2018-12-05T10:37:39.626Z,8.57
2018-12-05T10:40:02.759Z,8.07
2018-12-05T10:42:25.851Z,7.30
2018-12-05T10:44:49.070Z,8.77
2018-12-05T10:47:12.195Z,10.33
2018-12-05T10:49:35.334Z,8.97
2018-12-05T10:51:58.463Z,8.60
2018-12-05T10:54:21.556Z,7.80
2018-12-05T10:56:45.935Z,5.77
2018-12-05T10:59:09.409Z,5.37
2018-12-05T11:01:38.120Z,7.40
2018-12-05T11:04:03.269Z,8.57
2018-12-05T11:06:31.842Z,6.77
2018-12-05T11:09:00.533Z,7.70
2018-12-05T11:11:29.340Z,10.20
2018-12-05T11:13:57.980Z,9.70
2018-12-05T11:16:26.691Z,8.57
2018-12-05T11:18:55.279Z,9.57
2018-12-05T11:21:24.101Z,6.93
2018-12-05T11:23:54.936Z,8.10
2018-12-05T11:26:19.824Z,7.20
2018-12-05T11:28:42.995Z,7.80
2018-12-05T11:31:06.144Z,8.37
2018-12-05T11:33:29.263Z,6.47
2018-12-05T11:35:52.370Z,4.07
2018-12-05T11:38:15.611Z,10.07
2018-12-05T11:40:38.754Z,6.63
2018-12-05T11:43:01.856Z,8.07
2018-12-05T11:45:25.022Z,7.77
2018-12-05T11:47:48.178Z,5.43
2018-12-05T11:50:11.350Z,7.50
2018-12-05T11:52:34.467Z,11.30
2018-12-05T11:54:57.568Z,6.67
2018-12-05T11:57:20.719Z,8.73
2018-12-05T11:59:43.876Z,7.27
2018-12-05T12:02:07.040Z,5.87
2018-12-05T12:04:30.149Z,7.40
2018-12-05T12:06:53.237Z,5.73
2018-12-05T12:09:16.350Z,7.57
2018-12-05T12:11:39.470Z,9.70
2018-12-05T12:14:02.678Z,7.80
2018-12-05T12:18:55.239Z,6.30
2018-12-05T12:21:18.350Z,9.57
2018-12-05T12:23:41.494Z,10.10
2018-12-05T12:26:04.690Z,8.60
2018-12-05T12:28:27.841Z,6.97
2018-12-05T12:30:50.956Z,9.17
2018-12-05T12:33:14.064Z,6.67
2018-12-05T12:35:37.198Z,8.73
2018-12-05T12:38:00.311Z,7.73
2018-12-05T12:40:23.452Z,8.30
2018-12-05T12:42:46.563Z,8.57
2018-12-05T12:45:09.716Z,8.10
2018-12-05T12:47:32.875Z,7.70
2018-12-05T12:49:55.968Z,9.30
2018-12-05T12:52:19.091Z,9.10
2018-12-05T12:54:42.206Z,8.33
2018-12-05T12:57:05.363Z,10.37
2018-12-05T12:59:28.499Z,8.50
2018-12-05T13:01:51.665Z,6.50
2018-12-05T13:04:14.783Z,11.03
2018-12-05T13:06:37.952Z,10.27
2018-12-05T13:09:01.064Z,6.77
2018-12-05T13:11:24.180Z,9.57
2018-12-05T13:13:47.339Z,9.33
2018-12-05T13:16:10.438Z,11.17
2018-12-05T13:18:33.560Z,8.43
2018-12-05T13:20:56.678Z,11.53
2018-12-05T13:23:19.820Z,7.43
2018-12-05T13:25:42.922Z,8.63
2018-12-05T13:28:06.038Z,9.67
2018-12-05T13:30:29.178Z,9.97
2018-12-05T13:32:52.294Z,8.17
2018-12-05T13:35:15.479Z,7.13
2018-12-05T13:37:38.628Z,7.90
2018-12-05T13:40:01.758Z,7.20
2018-12-05T13:42:24.912Z,7.93
2018-12-05T13:44:48.049Z,10.73
2018-12-05T13:47:11.225Z,8.70
2018-12-05T13:49:34.366Z,5.77
2018-12-05T13:51:57.478Z,7.03
2018-12-05T13:54:20.626Z,9.60
2018-12-05T13:56:43.732Z,9.93
2018-12-05T13:59:06.938Z,8.93
2018-12-05T14:01:30.032Z,7.50
2018-12-05T14:03:53.159Z,7.50
2018-12-05T14:06:16.261Z,6.87
2018-12-05T14:08:39.376Z,8.57
2018-12-05T14:11:02.542Z,6.67
2018-12-05T14:13:25.776Z,6.23
2018-12-05T14:15:48.892Z,9.87
2018-12-05T14:18:12.006Z,12.13
2018-12-05T14:20:35.177Z,7.13
2018-12-05T14:22:58.312Z,10.93
2018-12-05T14:25:21.417Z,8.63
2018-12-05T14:27:44.534Z,8.97
2018-12-05T14:30:08.673Z,10.77
2018-12-05T14:32:31.797Z,8.93
2018-12-05T14:34:54.914Z,10.00
2018-12-05T14:37:18.072Z,8.17
2018-12-05T14:39:41.209Z,8.87
2018-12-05T14:42:04.366Z,8.77
2018-12-05T14:44:27.541Z,10.60
2018-12-05T14:46:50.705Z,9.33
2018-12-05T14:49:13.857Z,10.77
2018-12-05T14:51:37.118Z,10.97
2018-12-05T14:54:00.215Z,9.40
2018-12-05T14:56:23.407Z,12.13
2018-12-05T14:58:46.567Z,11.80
2018-12-05T15:01:09.729Z,11.00
2018-12-05T15:03:32.846Z,17.13
2018-12-05T15:05:55.963Z,14.53
2018-12-05T15:08:19.151Z,15.13
2018-12-05T15:10:42.362Z,11.80
2018-12-05T15:13:05.525Z,10.10
2018-12-05T15:15:28.672Z,9.90
2018-12-05T15:17:51.814Z,10.03
2018-12-05T15:20:14.975Z,11.67
2018-12-05T15:22:38.082Z,8.30
2018-12-05T15:25:01.199Z,13.17
2018-12-05T15:27:24.392Z,12.20
2018-12-05T15:29:47.616Z,9.97
2018-12-05T15:32:10.692Z,9.13
2018-12-05T15:34:33.816Z,9.90
2018-12-05T15:36:56.941Z,12.97
2018-12-05T15:39:20.030Z,10.77
2018-12-05T15:41:43.236Z,11.63
2018-12-05T15:44:06.405Z,9.50
2018-12-05T15:46:29.545Z,9.93
2018-12-05T15:48:52.662Z,8.20
2018-12-05T15:51:15.808Z,8.90
2018-12-05T15:53:38.919Z,9.43
2018-12-05T15:56:02.069Z,8.90
2018-12-05T15:58:25.160Z,13.53
2018-12-05T16:00:48.302Z,9.77
2018-12-05T16:03:11.446Z,9.70
2018-12-05T16:05:34.574Z,9.33
2018-12-05T16:07:57.734Z,7.23
2018-12-05T16:10:20.887Z,8.30
2018-12-05T16:12:44.002Z,6.27
2018-12-05T16:15:07.306Z,11.50
2018-12-05T16:17:30.446Z,11.13
2018-12-05T16:19:53.629Z,15.20
2018-12-05T16:22:16.744Z,11.97
2018-12-05T16:24:39.941Z,7.80
2018-12-05T16:27:03.074Z,10.90
2018-12-05T16:29:26.196Z,11.37
2018-12-05T16:31:49.346Z,13.07
2018-12-05T16:34:12.505Z,8.73
2018-12-05T16:36:35.637Z,9.80
2018-12-05T16:38:58.824Z,11.43
2018-12-05T16:41:21.932Z,9.07
2018-12-05T16:43:45.111Z,9.10
2018-12-05T16:46:08.290Z,12.30
2018-12-05T16:48:31.381Z,14.97
2018-12-05T16:50:54.551Z,12.40
2018-12-05T16:53:17.661Z,11.47
2018-12-05T16:55:40.830Z,12.20
2018-12-05T16:58:03.965Z,12.47
2018-12-05T17:03:02.088Z,9.00
2018-12-05T17:05:25.316Z,9.00
2018-12-05T17:07:48.550Z,11.57
2018-12-05T17:10:11.721Z,12.10
2018-12-05T17:12:34.815Z,13.50
2018-12-05T17:14:57.946Z,14.03
2018-12-05T17:17:21.136Z,11.07
2018-12-05T17:19:44.256Z,13.43
2018-12-05T17:22:07.517Z,12.80
2018-12-05T17:24:30.800Z,15.57
2018-12-05T17:26:53.929Z,10.33
2018-12-05T17:29:17.147Z,10.43
2018-12-05T17:31:40.256Z,12.33
2018-12-05T17:34:03.457Z,12.07
2018-12-05T17:36:26.611Z,12.87
2018-12-05T17:38:49.757Z,12.20
2018-12-05T17:41:12.986Z,11.10
2018-12-05T17:43:36.117Z,12.73
2018-12-05T17:45:59.270Z,10.73
2018-12-05T17:48:22.410Z,13.13
2018-12-05T17:50:45.534Z,12.70
2018-12-05T17:53:08.711Z,13.07
2018-12-05T17:55:32.083Z,13.30
2018-12-05T17:57:55.185Z,12.10
2018-12-05T18:00:18.360Z,13.30
2018-12-05T18:02:41.445Z,15.13
2018-12-05T18:05:04.733Z,11.70
2018-12-05T18:07:27.878Z,12.47
2018-12-05T18:09:50.989Z,13.87
2018-12-05T18:12:14.174Z,15.67
2018-12-05T18:14:37.295Z,14.83
2018-12-05T18:17:00.479Z,14.57
2018-12-05T18:19:23.744Z,18.03
2018-12-05T18:21:46.939Z,16.87
2018-12-05T18:24:10.078Z,16.83
2018-12-05T18:26:33.237Z,13.03
2018-12-05T18:28:56.354Z,11.13
2018-12-05T18:31:19.557Z,14.43
2018-12-05T18:33:42.678Z,10.67
2018-12-05T18:36:05.823Z,9.50
2018-12-05T18:38:28.950Z,11.70
2018-12-05T18:40:52.099Z,10.83
2018-12-05T18:43:15.264Z,13.53
2018-12-05T18:45:38.379Z,12.60
2018-12-05T18:48:01.619Z,10.13
2018-12-05T18:50:24.733Z,11.77
2018-12-05T18:52:47.869Z,9.17
2018-12-05T18:55:11.074Z,12.67
2018-12-05T18:57:34.257Z,16.30
2018-12-05T19:00:01.260Z,12.97
2018-12-05T19:02:22.518Z,13.77
2018-12-05T19:04:45.986Z,14.07
2018-12-05T19:07:09.124Z,13.40
2018-12-05T19:09:32.227Z,12.03
2018-12-05T19:11:55.406Z,11.00
2018-12-05T19:14:24.143Z,12.53
2018-12-05T19:16:47.267Z,9.10
2018-12-05T19:19:10.387Z,8.63
2018-12-05T19:21:33.507Z,11.93
2018-12-05T19:23:56.646Z,10.93
2018-12-05T19:26:19.873Z,12.93
2018-12-05T19:28:43.033Z,11.67
2018-12-05T19:31:06.212Z,10.67
2018-12-05T19:33:29.315Z,10.60
2018-12-05T19:35:52.470Z,11.33
2018-12-05T19:38:15.595Z,14.57
2018-12-05T19:40:38.720Z,14.63
2018-12-05T19:43:01.912Z,11.43
2018-12-05T19:45:25.075Z,15.03
2018-12-05T19:47:48.178Z,11.23
2018-12-05T19:50:11.446Z,11.80
2018-12-05T19:52:34.587Z,15.17
2018-12-05T19:54:57.671Z,9.60
2018-12-05T19:57:20.835Z,9.90
2018-12-05T19:59:43.939Z,13.93
2018-12-05T20:02:07.222Z,11.97
2018-12-05T20:04:30.321Z,11.83
2018-12-05T20:06:53.472Z,11.70
2018-12-05T20:09:16.701Z,8.73
2018-12-05T20:11:39.869Z,12.43
2018-12-05T20:14:03.236Z,11.67
2018-12-05T20:16:26.393Z,17.67
2018-12-05T20:18:49.484Z,9.27
2018-12-05T20:21:12.618Z,14.73
2018-12-05T20:23:35.767Z,11.03
2018-12-05T20:25:58.965Z,17.77
2018-12-05T20:28:22.067Z,9.77
2018-12-05T20:30:45.198Z,13.07
2018-12-05T20:33:08.355Z,11.83
2018-12-05T20:35:31.475Z,13.50
2018-12-05T20:37:54.629Z,12.87
2018-12-05T20:40:17.811Z,10.57
2018-12-05T20:42:40.968Z,10.77
2018-12-05T20:45:05.384Z,11.23
2018-12-05T20:47:28.517Z,14.23
2018-12-05T20:49:51.657Z,12.40
2018-12-05T20:52:14.776Z,13.40
2018-12-05T20:54:37.952Z,12.33
2018-12-05T20:57:01.043Z,12.67
2018-12-05T20:59:24.191Z,11.40
2018-12-05T21:01:47.372Z,11.70
2018-12-05T21:04:10.494Z,12.30
2018-12-05T21:06:33.683Z,12.50
2018-12-05T21:08:56.819Z,11.87
2018-12-05T21:11:19.975Z,11.53
2018-12-05T21:13:43.104Z,11.03
2018-12-05T21:16:06.239Z,11.40
2018-12-05T21:18:29.394Z,12.33
2018-12-05T21:20:52.524Z,10.37
2018-12-05T21:23:15.649Z,10.80
2018-12-05T21:25:38.798Z,12.20
2018-12-05T21:28:01.968Z,13.60
2018-12-05T21:30:25.184Z,10.30
2018-12-05T21:32:48.284Z,8.90
2018-12-05T21:35:11.408Z,14.53
2018-12-05T21:37:34.556Z,5.90
2018-12-05T21:39:57.703Z,8.30
2018-12-05T21:42:21.683Z,10.43
2018-12-05T21:44:44.810Z,10.60
2018-12-05T21:47:07.975Z,10.17
2018-12-05T21:49:31.087Z,11.33
2018-12-05T21:51:54.203Z,9.33
2018-12-05T21:54:17.367Z,7.87
2018-12-05T21:56:40.469Z,11.50
2018-12-05T21:59:03.617Z,12.40
2018-12-05T22:01:26.725Z,8.07
2018-12-05T22:03:49.824Z,11.40
2018-12-05T22:06:13.010Z,12.63
2018-12-05T22:08:36.160Z,11.17
2018-12-05T22:10:59.334Z,6.83
2018-12-05T22:13:22.519Z,11.07
2018-12-05T22:15:45.673Z,7.03
2018-12-05T22:18:08.839Z,8.80
2018-12-05T22:20:32.055Z,10.57
2018-12-05T22:22:55.230Z,11.67
2018-12-05T22:25:18.373Z,8.80
2018-12-05T22:27:41.478Z,8.33
2018-12-05T22:30:05.885Z,7.83
2018-12-05T22:32:29.001Z,8.27
2018-12-05T22:34:52.118Z,9.40
2018-12-05T22:37:15.266Z,9.30
2018-12-05T22:39:38.384Z,7.23
2018-12-05T22:42:01.545Z,9.80
2018-12-05T22:44:24.648Z,7.23
2018-12-05T22:46:47.757Z,6.57
2018-12-05T22:49:10.903Z,9.77
2018-12-05T22:51:34.016Z,10.20
2018-12-05T22:53:57.139Z,8.80
2018-12-05T22:56:20.299Z,8.30
2018-12-05T22:58:43.387Z,6.63
2018-12-05T23:01:06.628Z,7.47
2018-12-05T23:03:29.792Z,9.70
2018-12-05T23:05:52.893Z,9.90
2018-12-05T23:08:16.036Z,8.17
2018-12-05T23:10:39.163Z,9.17
2018-12-05T23:13:02.311Z,8.50
2018-12-05T23:15:25.498Z,9.53
2018-12-05T23:17:48.599Z,9.40
2018-12-05T23:20:11.725Z,10.40
2018-12-05T23:22:34.837Z,8.63
2018-12-05T23:24:57.945Z,6.10
2018-12-05T23:27:21.176Z,7.90
2018-12-05T23:29:44.286Z,9.10
2018-12-05T23:32:07.404Z,7.57
2018-12-05T23:34:30.514Z,8.33
2018-12-05T23:36:53.660Z,10.50
2018-12-05T23:39:16.791Z,7.80
2018-12-05T23:41:39.938Z,8.53
2018-12-05T23:44:03.119Z,7.47
2018-12-05T23:46:26.275Z,9.93
2018-12-05T23:48:49.376Z,9.77
2018-12-05T23:51:12.492Z,11.37
2018-12-05T23:53:35.616Z,8.27
2018-12-05T23:55:58.807Z,11.60
2018-12-05T23:58:21.926Z,10.87
